Terminal Aerodrome Forecast
Issued by NWS

Home | Current Version | Previous Version | Text Only | Print | Product List | Glossary On
Versions: 1 2 3 4 5 6 7 8 9 10 11 12 13 14 15 16 17 18 19 20 21
000
FTUS41 KBTV 210200 AAA
TAFMSS
TAF AMD
KMSS 210248Z 2103/2124 08004KT P6SM -SHRA SCT025 OVC050
      TEMPO 2103/2106 6SM -SHRA BR BKN025
     FM210600 06008KT 5SM -RA BR SCT008 OVC020
     FM211200 04013G21KT 4SM -RA BR OVC008=

USA.gov is the U.S. government's official web portal to all federal, state and local government web resources and services.